sensor_id;sensor_type;location;lat;lon;timestamp;pressure;altitude;pressure_sealevel;temperature;humidity
9672;BME280;4874;43.568;27.824;2023-05-28T00:00:24;98719.47;;;17.99;100.00
9672;BME280;4874;43.568;27.824;2023-05-28T00:02:53;98734.03;;;17.84;100.00
9672;BME280;4874;43.568;27.824;2023-05-28T00:05:20;98739.28;;;17.98;100.00
9672;BME280;4874;43.568;27.824;2023-05-28T00:07:46;98738.34;;;17.57;100.00
9672;BME280;4874;43.568;27.824;2023-05-28T00:10:13;98727.28;;;17.94;100.00
9672;BME280;4874;43.568;27.824;2023-05-28T00:12:40;98726.81;;;18.18;100.00
9672;BME280;4874;43.568;27.824;2023-05-28T00:15:07;98724.66;;;18.07;100.00
9672;BME280;4874;43.568;27.824;2023-05-28T00:17:34;98699.84;;;18.05;100.00
9672;BME280;4874;43.568;27.824;2023-05-28T00:20:01;98721.09;;;17.66;100.00
9672;BME280;4874;43.568;27.824;2023-05-28T00:22:29;98725.78;;;17.85;100.00
9672;BME280;4874;43.568;27.824;2023-05-28T00:24:55;98723.00;;;17.72;100.00
9672;BME280;4874;43.568;27.824;2023-05-28T00:27:23;98720.25;;;17.66;100.00
9672;BME280;4874;43.568;27.824;2023-05-28T00:29:50;98739.47;;;17.69;100.00
9672;BME280;4874;43.568;27.824;2023-05-28T00:32:17;98732.78;;;17.86;100.00
9672;BME280;4874;43.568;27.824;2023-05-28T00:34:44;98714.34;;;17.49;100.00
9672;BME280;4874;43.568;27.824;2023-05-28T00:37:11;98718.25;;;17.74;100.00
9672;BME280;4874;43.568;27.824;2023-05-28T00:39:38;98717.00;;;18.04;100.00
9672;BME280;4874;43.568;27.824;2023-05-28T00:42:05;98712.06;;;17.46;100.00
9672;BME280;4874;43.568;27.824;2023-05-28T00:44:34;98717.31;;;17.60;100.00
9672;BME280;4874;43.568;27.824;2023-05-28T00:47:01;98724.91;;;17.78;100.00
9672;BME280;4874;43.568;27.824;2023-05-28T00:49:28;98702.34;;;17.24;100.00
9672;BME280;4874;43.568;27.824;2023-05-28T00:51:56;98730.84;;;17.46;100.00
9672;BME280;4874;43.568;27.824;2023-05-28T00:54:23;98729.31;;;17.43;100.00
9672;BME280;4874;43.568;27.824;2023-05-28T00:56:52;98720.00;;;17.60;100.00
9672;BME280;4874;43.568;27.824;2023-05-28T00:59:20;98730.38;;;17.42;100.00
9672;BME280;4874;43.568;27.824;2023-05-28T01:01:48;98727.25;;;17.60;100.00
9672;BME280;4874;43.568;27.824;2023-05-28T01:04:15;98730.25;;;17.50;100.00
9672;BME280;4874;43.568;27.824;2023-05-28T01:06:43;98720.69;;;17.69;100.00
9672;BME280;4874;43.568;27.824;2023-05-28T01:09:11;98717.50;;;17.87;100.00
9672;BME280;4874;43.568;27.824;2023-05-28T01:11:40;98722.00;;;18.07;100.00
9672;BME280;4874;43.568;27.824;2023-05-28T01:14:08;98715.25;;;17.90;100.00
9672;BME280;4874;43.568;27.824;2023-05-28T01:16:36;98679.72;;;17.60;100.00
9672;BME280;4874;43.568;27.824;2023-05-28T01:19:04;98689.22;;;17.35;100.00
9672;BME280;4874;43.568;27.824;2023-05-28T01:21:40;98700.19;;;17.40;100.00
9672;BME280;4874;43.568;27.824;2023-05-28T01:24:09;98710.69;;;17.35;100.00
9672;BME280;4874;43.568;27.824;2023-05-28T01:26:36;98713.31;;;17.29;100.00
9672;BME280;4874;43.568;27.824;2023-05-28T01:29:13;98706.97;;;17.57;100.00
9672;BME280;4874;43.568;27.824;2023-05-28T01:31:40;98699.75;;;17.58;100.00
9672;BME280;4874;43.568;27.824;2023-05-28T01:34:09;98698.63;;;17.46;100.00
9672;BME280;4874;43.568;27.824;2023-05-28T01:37:00;98693.06;;;17.47;100.00
9672;BME280;4874;43.568;27.824;2023-05-28T01:39:27;98701.13;;;17.47;100.00
9672;BME280;4874;43.568;27.824;2023-05-28T01:41:58;98703.84;;;17.33;100.00
9672;BME280;4874;43.568;27.824;2023-05-28T01:44:25;98702.19;;;17.32;100.00
9672;BME280;4874;43.568;27.824;2023-05-28T01:46:53;98703.41;;;17.50;100.00
9672;BME280;4874;43.568;27.824;2023-05-28T01:49:21;98705.31;;;17.35;100.00
9672;BME280;4874;43.568;27.824;2023-05-28T01:51:50;98706.53;;;17.33;100.00
9672;BME280;4874;43.568;27.824;2023-05-28T01:54:18;98698.03;;;17.50;100.00
9672;BME280;4874;43.568;27.824;2023-05-28T01:56:45;98676.50;;;17.44;100.00
9672;BME280;4874;43.568;27.824;2023-05-28T01:59:12;98695.63;;;17.62;100.00
9672;BME280;4874;43.568;27.824;2023-05-28T02:01:39;98681.41;;;17.62;100.00
9672;BME280;4874;43.568;27.824;2023-05-28T02:04:05;98683.38;;;17.46;100.00
9672;BME280;4874;43.568;27.824;2023-05-28T02:06:33;98696.13;;;17.44;100.00
9672;BME280;4874;43.568;27.824;2023-05-28T02:09:00;98693.50;;;17.51;100.00
9672;BME280;4874;43.568;27.824;2023-05-28T02:11:27;98707.16;;;17.35;100.00
9672;BME280;4874;43.568;27.824;2023-05-28T02:13:54;98686.00;;;17.19;100.00
9672;BME280;4874;43.568;27.824;2023-05-28T02:16:21;98709.22;;;17.33;100.00
9672;BME280;4874;43.568;27.824;2023-05-28T02:18:51;98710.03;;;17.33;100.00
9672;BME280;4874;43.568;27.824;2023-05-28T02:21:19;98710.03;;;17.33;100.00
9672;BME280;4874;43.568;27.824;2023-05-28T02:23:47;98719.31;;;17.52;100.00
9672;BME280;4874;43.568;27.824;2023-05-28T02:26:15;98720.00;;;17.88;100.00
9672;BME280;4874;43.568;27.824;2023-05-28T02:28:42;98712.09;;;17.52;100.00
9672;BME280;4874;43.568;27.824;2023-05-28T02:31:10;98723.03;;;17.51;100.00
9672;BME280;4874;43.568;27.824;2023-05-28T02:33:41;98689.56;;;17.26;100.00
9672;BME280;4874;43.568;27.824;2023-05-28T02:36:09;98733.66;;;17.66;100.00
9672;BME280;4874;43.568;27.824;2023-05-28T02:38:40;98720.09;;;17.46;100.00
9672;BME280;4874;43.568;27.824;2023-05-28T02:41:07;98720.59;;;17.56;100.00
9672;BME280;4874;43.568;27.824;2023-05-28T02:43:34;98706.59;;;17.39;100.00
9672;BME280;4874;43.568;27.824;2023-05-28T02:46:01;98697.09;;;17.16;100.00
9672;BME280;4874;43.568;27.824;2023-05-28T02:48:28;98695.09;;;17.45;100.00
9672;BME280;4874;43.568;27.824;2023-05-28T02:50:55;98722.44;;;17.55;100.00
9672;BME280;4874;43.568;27.824;2023-05-28T02:53:22;98721.88;;;17.60;100.00
9672;BME280;4874;43.568;27.824;2023-05-28T02:55:49;98727.31;;;18.01;100.00
9672;BME280;4874;43.568;27.824;2023-05-28T02:58:17;98727.41;;;18.14;100.00
9672;BME280;4874;43.568;27.824;2023-05-28T03:00:44;98735.81;;;18.38;100.00
9672;BME280;4874;43.568;27.824;2023-05-28T03:03:10;98724.91;;;18.46;100.00
9672;BME280;4874;43.568;27.824;2023-05-28T03:05:37;98722.78;;;18.35;100.00
9672;BME280;4874;43.568;27.824;2023-05-28T03:08:04;98731.47;;;18.03;100.00
9672;BME280;4874;43.568;27.824;2023-05-28T03:10:31;98732.31;;;18.10;100.00
9672;BME280;4874;43.568;27.824;2023-05-28T03:12:58;98725.94;;;18.45;100.00
9672;BME280;4874;43.568;27.824;2023-05-28T03:15:25;98736.34;;;18.27;100.00
9672;BME280;4874;43.568;27.824;2023-05-28T03:17:54;98729.44;;;18.12;100.00
9672;BME280;4874;43.568;27.824;2023-05-28T03:20:22;98710.69;;;18.18;100.00
9672;BME280;4874;43.568;27.824;2023-05-28T03:22:55;98738.69;;;18.37;100.00
9672;BME280;4874;43.568;27.824;2023-05-28T03:25:25;98695.13;;;18.07;100.00
9672;BME280;4874;43.568;27.824;2023-05-28T03:27:53;98746.56;;;18.38;100.00
9672;BME280;4874;43.568;27.824;2023-05-28T03:30:20;98740.94;;;18.33;100.00
9672;BME280;4874;43.568;27.824;2023-05-28T03:32:50;98740.34;;;18.38;100.00
9672;BME280;4874;43.568;27.824;2023-05-28T03:35:18;98737.72;;;18.44;100.00
9672;BME280;4874;43.568;27.824;2023-05-28T03:37:45;98724.41;;;18.36;100.00
9672;BME280;4874;43.568;27.824;2023-05-28T03:40:11;98736.16;;;18.63;100.00
9672;BME280;4874;43.568;27.824;2023-05-28T03:42:39;98740.94;;;18.74;100.00
9672;BME280;4874;43.568;27.824;2023-05-28T03:45:06;98728.41;;;18.40;100.00
9672;BME280;4874;43.568;27.824;2023-05-28T03:47:34;98745.63;;;18.52;100.00
9672;BME280;4874;43.568;27.824;2023-05-28T03:50:02;98740.94;;;18.67;100.00
9672;BME280;4874;43.568;27.824;2023-05-28T03:52:30;98743.28;;;18.84;100.00
9672;BME280;4874;43.568;27.824;2023-05-28T03:54:57;98750.50;;;18.77;100.00
9672;BME280;4874;43.568;27.824;2023-05-28T03:57:24;98743.16;;;18.57;100.00
9672;BME280;4874;43.568;27.824;2023-05-28T03:59:51;98724.41;;;18.30;100.00
9672;BME280;4874;43.568;27.824;2023-05-28T04:02:19;98749.44;;;18.71;100.00
9672;BME280;4874;43.568;27.824;2023-05-28T04:04:45;98747.50;;;18.58;100.00
9672;BME280;4874;43.568;27.824;2023-05-28T04:07:13;98748.56;;;18.64;100.00
9672;BME280;4874;43.568;27.824;2023-05-28T04:09:40;98723.75;;;18.68;100.00
9672;BME280;4874;43.568;27.824;2023-05-28T04:12:07;98737.69;;;18.79;100.00
9672;BME280;4874;43.568;27.824;2023-05-28T04:17:45;98739.19;;;18.47;100.00
9672;BME280;4874;43.568;27.824;2023-05-28T04:20:12;98743.56;;;18.54;100.00
9672;BME280;4874;43.568;27.824;2023-05-28T04:22:39;98736.16;;;18.63;100.00
9672;BME280;4874;43.568;27.824;2023-05-28T04:25:06;98752.47;;;18.61;100.00
9672;BME280;4874;43.568;27.824;2023-05-28T04:27:33;98758.91;;;18.60;100.00
9672;BME280;4874;43.568;27.824;2023-05-28T04:29:59;98765.25;;;18.94;100.00
9672;BME280;4874;43.568;27.824;2023-05-28T04:32:27;98766.84;;;18.82;100.00
9672;BME280;4874;43.568;27.824;2023-05-28T04:34:54;98758.06;;;19.20;100.00
9672;BME280;4874;43.568;27.824;2023-05-28T04:37:21;98762.16;;;19.10;100.00
9672;BME280;4874;43.568;27.824;2023-05-28T04:39:48;98758.78;;;18.82;100.00
9672;BME280;4874;43.568;27.824;2023-05-28T04:42:17;98734.78;;;18.87;100.00
9672;BME280;4874;43.568;27.824;2023-05-28T04:44:44;98765.25;;;18.94;100.00
9672;BME280;4874;43.568;27.824;2023-05-28T04:47:11;98764.84;;;19.03;100.00
9672;BME280;4874;43.568;27.824;2023-05-28T04:49:39;98760.72;;;19.07;100.00
9672;BME280;4874;43.568;27.824;2023-05-28T04:52:09;98762.41;;;19.21;100.00
9672;BME280;4874;43.568;27.824;2023-05-28T04:54:36;98763.22;;;19.22;100.00
9672;BME280;4874;43.568;27.824;2023-05-28T04:57:03;98747.91;;;19.16;100.00
9672;BME280;4874;43.568;27.824;2023-05-28T04:59:31;98773.91;;;18.89;100.00
9672;BME280;4874;43.568;27.824;2023-05-28T05:01:58;98773.53;;;19.05;100.00
9672;BME280;4874;43.568;27.824;2023-05-28T05:04:25;98786.38;;;19.10;100.00
9672;BME280;4874;43.568;27.824;2023-05-28T05:06:51;98787.44;;;19.15;100.00
9672;BME280;4874;43.568;27.824;2023-05-28T05:09:18;98773.53;;;18.99;100.00
9672;BME280;4874;43.568;27.824;2023-05-28T05:11:46;98792.91;;;18.81;100.00
9672;BME280;4874;43.568;27.824;2023-05-28T05:14:13;98790.47;;;18.99;100.00
9672;BME280;4874;43.568;27.824;2023-05-28T05:16:40;98795.03;;;18.92;100.00
9672;BME280;4874;43.568;27.824;2023-05-28T05:19:07;98791.53;;;19.05;100.00
9672;BME280;4874;43.568;27.824;2023-05-28T05:21:34;98780.72;;;18.79;100.00
9672;BME280;4874;43.568;27.824;2023-05-28T05:24:02;98756.53;;;18.85;100.00
9672;BME280;4874;43.568;27.824;2023-05-28T05:26:29;98788.06;;;19.11;100.00
9672;BME280;4874;43.568;27.824;2023-05-28T05:28:55;98787.66;;;19.14;100.00
9672;BME280;4874;43.568;27.824;2023-05-28T05:31:22;98784.03;;;19.54;100.00
9672;BME280;4874;43.568;27.824;2023-05-28T05:33:49;98743.31;;;19.10;100.00
9672;BME280;4874;43.568;27.824;2023-05-28T05:36:16;98787.13;;;19.44;100.00
9672;BME280;4874;43.568;27.824;2023-05-28T05:38:42;98784.31;;;19.12;100.00
9672;BME280;4874;43.568;27.824;2023-05-28T05:41:11;98793.44;;;19.17;100.00
9672;BME280;4874;43.568;27.824;2023-05-28T05:43:38;98787.53;;;19.54;100.00
9672;BME280;4874;43.568;27.824;2023-05-28T05:46:05;98788.78;;;19.52;100.00
9672;BME280;4874;43.568;27.824;2023-05-28T05:48:32;98783.31;;;19.13;100.00
9672;BME280;4874;43.568;27.824;2023-05-28T05:50:59;98785.16;;;19.19;100.00
9672;BME280;4874;43.568;27.824;2023-05-28T05:53:27;98786.22;;;19.18;100.00
9672;BME280;4874;43.568;27.824;2023-05-28T05:55:54;98779.59;;;19.27;100.00
9672;BME280;4874;43.568;27.824;2023-05-28T05:58:21;98787.25;;;19.23;100.00
9672;BME280;4874;43.568;27.824;2023-05-28T06:00:48;98789.16;;;19.36;100.00
9672;BME280;4874;43.568;27.824;2023-05-28T06:03:15;98762.13;;;18.97;100.00
9672;BME280;4874;43.568;27.824;2023-05-28T06:05:42;98784.16;;;19.26;100.00
9672;BME280;4874;43.568;27.824;2023-05-28T06:08:09;98786.94;;;19.78;100.00
9672;BME280;4874;43.568;27.824;2023-05-28T06:10:36;98771.19;;;19.56;100.00
9672;BME280;4874;43.568;27.824;2023-05-28T06:13:03;98782.56;;;19.64;100.00
9672;BME280;4874;43.568;27.824;2023-05-28T06:15:30;98794.81;;;19.54;100.00
9672;BME280;4874;43.568;27.824;2023-05-28T06:17:58;98792.63;;;19.23;100.00
9672;BME280;4874;43.568;27.824;2023-05-28T06:20:25;98801.63;;;19.50;100.00
9672;BME280;4874;43.568;27.824;2023-05-28T06:22:52;98802.88;;;19.54;100.00
9672;BME280;4874;43.568;27.824;2023-05-28T06:25:19;98790.88;;;19.56;100.00
9672;BME280;4874;43.568;27.824;2023-05-28T06:27:48;98793.56;;;19.69;100.00
9672;BME280;4874;43.568;27.824;2023-05-28T06:30:15;98746.94;;;19.36;100.00
9672;BME280;4874;43.568;27.824;2023-05-28T06:32:42;98799.34;;;19.53;100.00
9672;BME280;4874;43.568;27.824;2023-05-28T06:35:09;98798.53;;;19.59;100.00
9672;BME280;4874;43.568;27.824;2023-05-28T06:37:36;98798.56;;;19.72;100.00
9672;BME280;4874;43.568;27.824;2023-05-28T06:40:06;98762.25;;;19.42;100.00
9672;BME280;4874;43.568;27.824;2023-05-28T06:42:33;98804.75;;;19.53;100.00
9672;BME280;4874;43.568;27.824;2023-05-28T06:45:00;98799.94;;;19.42;100.00
9672;BME280;4874;43.568;27.824;2023-05-28T06:47:26;98800.41;;;19.65;100.00
9672;BME280;4874;43.568;27.824;2023-05-28T06:49:54;98791.50;;;19.45;100.00
9672;BME280;4874;43.568;27.824;2023-05-28T06:52:22;98802.22;;;19.39;100.00
9672;BME280;4874;43.568;27.824;2023-05-28T06:54:50;98805.13;;;19.37;100.00
9672;BME280;4874;43.568;27.824;2023-05-28T06:57:17;98802.69;;;19.62;100.00
9672;BME280;4874;43.568;27.824;2023-05-28T06:59:43;98806.00;;;19.64;100.00
9672;BME280;4874;43.568;27.824;2023-05-28T07:02:10;98811.34;;;19.51;100.00
9672;BME280;4874;43.568;27.824;2023-05-28T07:04:37;98811.75;;;19.41;100.00
9672;BME280;4874;43.568;27.824;2023-05-28T07:07:05;98807.63;;;19.45;100.00
9672;BME280;4874;43.568;27.824;2023-05-28T07:09:32;98812.19;;;19.51;100.00
9672;BME280;4874;43.568;27.824;2023-05-28T07:11:59;98807.41;;;19.40;100.00
9672;BME280;4874;43.568;27.824;2023-05-28T07:14:26;98814.28;;;19.75;100.00
9672;BME280;4874;43.568;27.824;2023-05-28T07:16:53;98770.97;;;19.51;100.00
9672;BME280;4874;43.568;27.824;2023-05-28T07:19:20;98813.88;;;19.72;100.00
9672;BME280;4874;43.568;27.824;2023-05-28T07:21:46;98807.03;;;19.63;100.00
9672;BME280;4874;43.568;27.824;2023-05-28T07:24:13;98805.75;;;19.39;100.00
9672;BME280;4874;43.568;27.824;2023-05-28T07:26:40;98804.75;;;19.60;100.00
9672;BME280;4874;43.568;27.824;2023-05-28T07:29:07;98811.13;;;19.39;100.00
9672;BME280;4874;43.568;27.824;2023-05-28T07:31:34;98807.00;;;19.43;100.00
9672;BME280;4874;43.568;27.824;2023-05-28T07:34:02;98799.09;;;19.35;100.00
9672;BME280;4874;43.568;27.824;2023-05-28T07:36:29;98796.25;;;19.56;100.00
9672;BME280;4874;43.568;27.824;2023-05-28T07:38:55;98805.38;;;19.62;100.00
9672;BME280;4874;43.568;27.824;2023-05-28T07:41:22;98805.53;;;19.47;100.00
9672;BME280;4874;43.568;27.824;2023-05-28T07:43:49;98812.72;;;19.27;100.00
9672;BME280;4874;43.568;27.824;2023-05-28T07:46:17;98794.34;;;19.31;100.00
9672;BME280;4874;43.568;27.824;2023-05-28T07:48:44;98803.28;;;19.44;100.00
9672;BME280;4874;43.568;27.824;2023-05-28T07:51:10;98806.75;;;19.32;100.00
9672;BME280;4874;43.568;27.824;2023-05-28T07:53:37;98810.28;;;19.39;100.00
9672;BME280;4874;43.568;27.824;2023-05-28T07:56:04;98801.00;;;19.54;100.00
9672;BME280;4874;43.568;27.824;2023-05-28T07:58:31;98805.38;;;19.68;100.00
9672;BME280;4874;43.568;27.824;2023-05-28T08:00:58;98794.81;;;19.67;100.00
9672;BME280;4874;43.568;27.824;2023-05-28T08:03:24;98795.22;;;19.64;100.00
9672;BME280;4874;43.568;27.824;2023-05-28T08:05:54;98775.75;;;19.62;100.00
9672;BME280;4874;43.568;27.824;2023-05-28T08:08:21;98751.31;;;19.63;100.00
9672;BME280;4874;43.568;27.824;2023-05-28T08:10:48;98785.06;;;19.85;100.00
9672;BME280;4874;43.568;27.824;2023-05-28T08:13:15;98781.09;;;20.14;100.00
9672;BME280;4874;43.568;27.824;2023-05-28T08:15:41;98787.31;;;20.47;100.00
9672;BME280;4874;43.568;27.824;2023-05-28T08:18:08;98794.66;;;20.78;100.00
9672;BME280;4874;43.568;27.824;2023-05-28T08:20:35;98789.16;;;20.53;100.00
9672;BME280;4874;43.568;27.824;2023-05-28T08:23:02;98785.22;;;20.49;100.00
9672;BME280;4874;43.568;27.824;2023-05-28T08:25:29;98779.03;;;20.42;100.00
9672;BME280;4874;43.568;27.824;2023-05-28T08:27:55;98780.75;;;20.17;100.00
9672;BME280;4874;43.568;27.824;2023-05-28T08:30:22;98757.50;;;19.97;100.00
9672;BME280;4874;43.568;27.824;2023-05-28T08:32:49;98783.00;;;20.07;100.00
9672;BME280;4874;43.568;27.824;2023-05-28T08:35:16;98787.34;;;20.08;100.00
9672;BME280;4874;43.568;27.824;2023-05-28T08:37:43;98780.50;;;20.12;100.00
9672;BME280;4874;43.568;27.824;2023-05-28T08:40:10;98789.44;;;20.00;100.00
9672;BME280;4874;43.568;27.824;2023-05-28T08:42:38;98782.38;;;20.05;100.00
9672;BME280;4874;43.568;27.824;2023-05-28T08:45:05;98777.41;;;19.76;100.00
9672;BME280;4874;43.568;27.824;2023-05-28T08:47:33;98776.59;;;19.95;100.00
9672;BME280;4874;43.568;27.824;2023-05-28T08:50:06;98782.66;;;20.67;100.00
9672;BME280;4874;43.568;27.824;2023-05-28T08:52:33;98789.38;;;20.45;100.00
9672;BME280;4874;43.568;27.824;2023-05-28T08:55:00;98791.91;;;19.68;100.00
9672;BME280;4874;43.568;27.824;2023-05-28T08:57:30;98797.31;;;20.01;100.00
9672;BME280;4874;43.568;27.824;2023-05-28T08:59:58;98777.59;;;20.14;100.00
9672;BME280;4874;43.568;27.824;2023-05-28T09:02:26;98797.53;;;19.93;100.00
9672;BME280;4874;43.568;27.824;2023-05-28T09:04:53;98795.88;;;20.18;100.00
9672;BME280;4874;43.568;27.824;2023-05-28T09:07:24;98798.13;;;20.08;100.00
9672;BME280;4874;43.568;27.824;2023-05-28T09:09:52;98803.31;;;20.29;100.00
9672;BME280;4874;43.568;27.824;2023-05-28T09:12:22;98805.38;;;20.34;100.00
9672;BME280;4874;43.568;27.824;2023-05-28T09:14:50;98815.53;;;19.92;100.00
9672;BME280;4874;43.568;27.824;2023-05-28T09:17:35;98820.91;;;19.60;100.00
9672;BME280;4874;43.568;27.824;2023-05-28T09:20:09;98813.88;;;19.72;100.00
9672;BME280;4874;43.568;27.824;2023-05-28T09:22:37;98804.28;;;19.30;100.00
9672;BME280;4874;43.568;27.824;2023-05-28T09:25:06;98812.78;;;19.34;100.00
9672;BME280;4874;43.568;27.824;2023-05-28T09:27:34;98797.72;;;19.72;100.00
9672;BME280;4874;43.568;27.824;2023-05-28T09:30:06;98803.72;;;19.87;100.00
9672;BME280;4874;43.568;27.824;2023-05-28T09:32:34;98799.34;;;20.06;100.00
9672;BME280;4874;43.568;27.824;2023-05-28T09:35:05;98768.50;;;19.88;100.00
9672;BME280;4874;43.568;27.824;2023-05-28T09:37:32;98784.38;;;20.55;100.00
9672;BME280;4874;43.568;27.824;2023-05-28T09:40:06;98780.97;;;20.79;100.00
9672;BME280;4874;43.568;27.824;2023-05-28T09:42:37;98727.66;;;20.24;100.00
9672;BME280;4874;43.568;27.824;2023-05-28T09:45:07;98782.16;;;20.90;100.00
9672;BME280;4874;43.568;27.824;2023-05-28T09:47:44;98775.06;;;21.71;100.00
9672;BME280;4874;43.568;27.824;2023-05-28T09:50:11;98767.75;;;21.47;100.00
9672;BME280;4874;43.568;27.824;2023-05-28T09:52:38;98770.31;;;21.66;100.00
9672;BME280;4874;43.568;27.824;2023-05-28T09:55:12;98766.78;;;21.66;100.00
9672;BME280;4874;43.568;27.824;2023-05-28T09:57:44;98751.25;;;21.61;100.00
9672;BME280;4874;43.568;27.824;2023-05-28T10:00:29;98760.31;;;21.42;100.00
9672;BME280;4874;43.568;27.824;2023-05-28T10:03:12;98729.22;;;21.33;100.00
9672;BME280;4874;43.568;27.824;2023-05-28T10:05:43;98755.88;;;21.23;100.00
9672;BME280;4874;43.568;27.824;2023-05-28T10:08:15;98759.38;;;20.79;100.00
9672;BME280;4874;43.568;27.824;2023-05-28T10:10:44;98763.19;;;20.59;100.00
9672;BME280;4874;43.568;27.824;2023-05-28T10:13:14;98761.19;;;20.98;100.00
9672;BME280;4874;43.568;27.824;2023-05-28T10:15:43;98756.63;;;20.99;100.00
9672;BME280;4874;43.568;27.824;2023-05-28T10:18:10;98762.44;;;20.96;100.00
9672;BME280;4874;43.568;27.824;2023-05-28T10:20:38;98765.03;;;21.16;100.00
9672;BME280;4874;43.568;27.824;2023-05-28T10:23:06;98755.31;;;21.70;100.00
9672;BME280;4874;43.568;27.824;2023-05-28T10:25:34;98756.75;;;21.73;100.00
9672;BME280;4874;43.568;27.824;2023-05-28T10:28:01;98758.91;;;21.64;100.00
9672;BME280;4874;43.568;27.824;2023-05-28T10:32:59;98747.84;;;21.10;100.00
9672;BME280;4874;43.568;27.824;2023-05-28T10:35:26;98756.16;;;21.40;100.00
9672;BME280;4874;43.568;27.824;2023-05-28T10:38:06;98751.56;;;21.78;100.00
9672;BME280;4874;43.568;27.824;2023-05-28T10:40:39;98743.88;;;21.75;100.00
9672;BME280;4874;43.568;27.824;2023-05-28T10:49:15;98740.81;;;22.14;100.00
9672;BME280;4874;43.568;27.824;2023-05-28T10:52:00;98716.28;;;21.91;100.00
9672;BME280;4874;43.568;27.824;2023-05-28T10:59:53;98747.19;;;21.70;100.00
9672;BME280;4874;43.568;27.824;2023-05-28T11:02:28;98732.63;;;21.78;100.00
9672;BME280;4874;43.568;27.824;2023-05-28T11:05:00;98711.97;;;21.59;100.00
9672;BME280;4874;43.568;27.824;2023-05-28T11:07:35;98724.53;;;22.21;100.00
9672;BME280;4874;43.568;27.824;2023-05-28T11:10:06;98699.91;;;21.86;100.00
9672;BME280;4874;43.568;27.824;2023-05-28T11:12:38;98717.66;;;22.00;100.00
9672;BME280;4874;43.568;27.824;2023-05-28T11:17:41;98680.88;;;21.99;100.00
9672;BME280;4874;43.568;27.824;2023-05-28T11:20:25;98704.59;;;22.15;100.00
9672;BME280;4874;43.568;27.824;2023-05-28T11:22:53;98705.66;;;22.14;100.00
9672;BME280;4874;43.568;27.824;2023-05-28T11:25:20;98708.03;;;21.61;100.00
9672;BME280;4874;43.568;27.824;2023-05-28T11:27:54;98699.56;;;21.76;100.00
9672;BME280;4874;43.568;27.824;2023-05-28T11:30:20;98699.38;;;22.38;100.00
9672;BME280;4874;43.568;27.824;2023-05-28T11:32:48;98701.50;;;23.02;100.00
9672;BME280;4874;43.568;27.824;2023-05-28T11:35:16;98695.53;;;22.28;100.00
9672;BME280;4874;43.568;27.824;2023-05-28T11:37:45;98704.78;;;22.38;100.00
9672;BME280;4874;43.568;27.824;2023-05-28T11:40:13;98696.59;;;21.84;100.00
9672;BME280;4874;43.568;27.824;2023-05-28T11:42:42;98683.13;;;22.56;100.00
9672;BME280;4874;43.568;27.824;2023-05-28T11:45:11;98696.56;;;22.81;100.00
9672;BME280;4874;43.568;27.824;2023-05-28T11:47:39;98688.69;;;22.61;100.00
9672;BME280;4874;43.568;27.824;2023-05-28T11:50:11;98694.09;;;22.43;100.00
9672;BME280;4874;43.568;27.824;2023-05-28T11:52:38;98695.88;;;22.13;100.00
9672;BME280;4874;43.568;27.824;2023-05-28T11:55:05;98698.81;;;22.48;100.00
9672;BME280;4874;43.568;27.824;2023-05-28T11:57:33;98700.69;;;22.47;100.00
9672;BME280;4874;43.568;27.824;2023-05-28T12:00:08;98696.03;;;22.18;100.00
9672;BME280;4874;43.568;27.824;2023-05-28T12:02:43;98686.81;;;22.62;100.00
9672;BME280;4874;43.568;27.824;2023-05-28T12:05:11;98698.06;;;22.41;100.00
9672;BME280;4874;43.568;27.824;2023-05-28T12:07:46;98683.56;;;22.53;100.00
9672;BME280;4874;43.568;27.824;2023-05-28T12:10:19;98687.47;;;22.75;100.00
9672;BME280;4874;43.568;27.824;2023-05-28T12:12:48;98688.44;;;22.81;100.00
9672;BME280;4874;43.568;27.824;2023-05-28T12:15:16;98684.81;;;22.57;100.00
9672;BME280;4874;43.568;27.824;2023-05-28T12:17:44;98689.91;;;22.11;100.00
9672;BME280;4874;43.568;27.824;2023-05-28T12:22:43;98677.63;;;22.27;100.00
9672;BME280;4874;43.568;27.824;2023-05-28T12:25:11;98677.72;;;22.02;100.00
9672;BME280;4874;43.568;27.824;2023-05-28T12:27:37;98675.97;;;21.89;100.00
9672;BME280;4874;43.568;27.824;2023-05-28T12:30:06;98669.31;;;22.10;100.00
9672;BME280;4874;43.568;27.824;2023-05-28T12:32:36;98662.75;;;21.81;100.00
9672;BME280;4874;43.568;27.824;2023-05-28T12:35:03;98663.22;;;21.78;100.00
9672;BME280;4874;43.568;27.824;2023-05-28T12:37:30;98668.09;;;21.88;100.00
9672;BME280;4874;43.568;27.824;2023-05-28T12:39:57;98653.38;;;22.02;100.00
9672;BME280;4874;43.568;27.824;2023-05-28T12:42:23;98652.72;;;21.88;100.00
9672;BME280;4874;43.568;27.824;2023-05-28T12:44:50;98647.81;;;22.33;100.00
9672;BME280;4874;43.568;27.824;2023-05-28T12:47:17;98649.50;;;21.73;100.00
9672;BME280;4874;43.568;27.824;2023-05-28T12:49:44;98641.81;;;22.13;100.00
9672;BME280;4874;43.568;27.824;2023-05-28T12:52:11;98636.53;;;22.54;100.00
9672;BME280;4874;43.568;27.824;2023-05-28T12:54:37;98638.81;;;22.21;100.00
9672;BME280;4874;43.568;27.824;2023-05-28T12:57:04;98636.91;;;22.58;100.00
9672;BME280;4874;43.568;27.824;2023-05-28T12:59:31;98637.41;;;22.96;100.00
9672;BME280;4874;43.568;27.824;2023-05-28T13:01:58;98640.81;;;22.91;100.00
9672;BME280;4874;43.568;27.824;2023-05-28T13:04:25;98625.34;;;22.80;100.00
9672;BME280;4874;43.568;27.824;2023-05-28T13:06:53;98625.28;;;22.57;100.00
9672;BME280;4874;43.568;27.824;2023-05-28T13:09:20;98627.44;;;22.67;100.00
9672;BME280;4874;43.568;27.824;2023-05-28T13:11:47;98625.72;;;22.84;100.00
9672;BME280;4874;43.568;27.824;2023-05-28T13:14:14;98628.84;;;22.69;100.00
9672;BME280;4874;43.568;27.824;2023-05-28T13:16:41;98623.06;;;22.48;100.00
9672;BME280;4874;43.568;27.824;2023-05-28T13:19:07;98624.28;;;22.52;100.00
9672;BME280;4874;43.568;27.824;2023-05-28T13:21:34;98635.81;;;22.77;100.00
9672;BME280;4874;43.568;27.824;2023-05-28T13:24:06;98629.78;;;22.27;100.00
9672;BME280;4874;43.568;27.824;2023-05-28T13:26:34;98637.25;;;21.95;100.00